Time;durP1;ratioP1;P1;durP2;ratioP2;P2;SDS_P1;SDS_P2;PMS_P1;PMS_P2;Temp;Humidity;BMP_temperature;BMP_pressure;BME280_temperature;BME280_humidity;BME280_pressure;Samples;Min_cycle;Max_cycle;Signal;HPM_P1;HPM_P2
2021/11/25 00:01:59;;;;;;;77.53;35.47;;;-2.60;99.90;;;;;;4158363;28;20283;-55
2021/11/25 00:04:00;;;;;;;94.93;37.50;;;-2.70;99.90;;;;;;4158342;28;20282;-52
2021/11/25 00:06:01;;;;;;;84.77;36.13;;;-2.70;99.90;;;;;;4158634;28;20848;-56
2021/11/25 00:08:02;;;;;;;83.07;36.53;;;-2.70;99.90;;;;;;4158212;28;20739;-59
2021/11/25 00:10:04;;;;;;;87.70;38.63;;;-2.70;99.90;;;;;;4158675;28;20267;-56
2021/11/25 00:12:06;;;;;;;81.20;37.50;;;-2.80;99.90;;;;;;4158311;28;20271;-55
2021/11/25 00:14:07;;;;;;;79.93;35.83;;;-2.80;99.90;;;;;;4159105;28;20282;-58
2021/11/25 00:16:08;;;;;;;91.10;37.03;;;-2.90;99.90;;;;;;4157911;28;20309;-56
2021/11/25 00:18:10;;;;;;;79.17;35.37;;;-2.90;99.90;;;;;;4157959;28;20291;-57
2021/11/25 00:20:12;;;;;;;84.93;35.80;;;-2.90;99.90;;;;;;4157581;28;20328;-55
2021/11/25 00:22:13;;;;;;;87.43;37.70;;;-2.90;99.90;;;;;;4158370;28;20344;-57
2021/11/25 00:24:14;;;;;;;88.00;35.93;;;-2.90;99.90;;;;;;4157917;28;20263;-52
2021/11/25 00:26:17;;;;;;;87.47;37.83;;;-2.90;99.90;;;;;;4157807;28;20805;-57
2021/11/25 00:28:18;;;;;;;83.50;36.33;;;-2.90;99.90;;;;;;4157510;28;20616;-57
2021/11/25 00:30:21;;;;;;;75.20;35.43;;;-2.90;99.90;;;;;;4158173;28;20283;-56
2021/11/25 00:32:22;;;;;;;81.07;35.27;;;-2.90;99.90;;;;;;4157331;28;20259;-57
2021/11/25 00:34:23;;;;;;;81.53;34.87;;;-2.90;99.90;;;;;;4158035;28;20754;-56
2021/11/25 00:36:24;;;;;;;83.23;34.00;;;-2.90;99.90;;;;;;4157940;28;21218;-58
2021/11/25 00:38:26;;;;;;;84.83;36.27;;;-2.90;99.90;;;;;;4157589;28;20317;-59
2021/11/25 00:40:27;;;;;;;75.93;35.77;;;-2.90;99.90;;;;;;4157826;28;20309;-58
2021/11/25 00:42:28;;;;;;;76.87;35.33;;;-2.90;99.90;;;;;;4157566;28;20325;-57
2021/11/25 00:44:29;;;;;;;86.77;37.70;;;-2.90;99.90;;;;;;4157585;28;21238;-57
2021/11/25 00:46:30;;;;;;;81.23;36.37;;;-3.00;99.90;;;;;;4157300;28;20302;-55
2021/11/25 00:48:32;;;;;;;75.40;33.43;;;-3.00;99.90;;;;;;4158228;28;20266;-57
2021/11/25 00:50:33;;;;;;;75.77;33.03;;;-2.90;99.90;;;;;;4157469;28;20352;-58
2021/11/25 00:52:35;;;;;;;76.73;33.10;;;-2.90;99.90;;;;;;4157805;28;20295;-56
2021/11/25 00:54:36;;;;;;;72.30;31.80;;;-2.90;99.90;;;;;;4157044;28;20270;-56
2021/11/25 00:56:37;;;;;;;81.13;32.53;;;-3.00;99.90;;;;;;4157703;28;20748;-59
2021/11/25 00:58:38;;;;;;;63.53;28.33;;;-3.10;99.90;;;;;;4157701;28;20774;-59
2021/11/25 01:00:39;;;;;;;58.80;25.33;;;-3.10;99.90;;;;;;4157662;28;20321;-56
2021/11/25 01:02:41;;;;;;;63.97;26.10;;;-3.10;99.90;;;;;;4157547;28;20742;-56
2021/11/25 01:04:42;;;;;;;52.13;24.93;;;-3.20;99.90;;;;;;4157408;28;20259;-58
2021/11/25 01:06:43;;;;;;;67.77;29.83;;;-3.30;99.90;;;;;;4157142;28;20302;-54
2021/11/25 01:08:44;;;;;;;74.13;30.97;;;-3.30;99.90;;;;;;4156936;28;20274;-58
2021/11/25 01:10:46;;;;;;;64.27;29.80;;;-3.40;99.90;;;;;;4157072;28;20262;-55
2021/11/25 01:12:49;;;;;;;72.03;31.87;;;-3.40;99.90;;;;;;4156663;28;20325;-58
2021/11/25 01:14:50;;;;;;;66.33;29.77;;;-3.50;99.90;;;;;;4158086;28;20301;-59
2021/11/25 01:16:51;;;;;;;67.77;30.57;;;-3.60;99.90;;;;;;4156837;28;20283;-53
2021/11/25 01:18:52;;;;;;;66.27;30.33;;;-3.60;99.90;;;;;;4157513;28;20266;-59
2021/11/25 01:20:54;;;;;;;62.57;29.40;;;-3.60;99.90;;;;;;4157162;28;20266;-59
2021/11/25 01:22:57;;;;;;;67.68;31.73;;;-3.70;99.90;;;;;;4157885;28;20320;-56
2021/11/25 01:24:58;;;;;;;72.60;31.47;;;-3.70;99.90;;;;;;4157309;28;20041;-55
2021/11/25 01:26:59;;;;;;;73.88;32.25;;;-3.70;99.90;;;;;;4156281;28;20298;-60
2021/11/25 01:29:00;;;;;;;79.30;31.83;;;-3.70;99.90;;;;;;4157197;28;20577;-54
2021/11/25 01:31:02;;;;;;;76.77;32.67;;;-3.70;99.90;;;;;;4157012;28;20317;-63
2021/11/25 01:33:03;;;;;;;80.33;36.17;;;-3.70;99.90;;;;;;4157420;28;20306;-58
2021/11/25 01:35:06;;;;;;;76.35;31.85;;;-3.70;99.90;;;;;;4156802;28;20828;-57
2021/11/25 01:37:07;;;;;;;71.40;33.20;;;-3.70;99.90;;;;;;4156699;28;20056;-58
2021/11/25 01:39:09;;;;;;;80.63;34.20;;;-3.70;99.90;;;;;;4155853;28;20278;-58
2021/11/25 01:41:10;;;;;;;77.45;33.42;;;-3.70;99.90;;;;;;4157294;28;20045;-57
2021/11/25 01:43:12;;;;;;;79.72;33.40;;;-3.80;99.90;;;;;;4156907;28;20037;-57
2021/11/25 01:45:14;;;;;;;85.07;37.85;;;-3.90;99.90;;;;;;4156861;28;20041;-55
2021/11/25 01:47:16;;;;;;;93.30;40.45;;;-3.90;99.90;;;;;;4156103;28;20034;-56
2021/11/25 01:49:17;;;;;;;84.05;35.30;;;-4.00;99.90;;;;;;4157144;28;20473;-58
2021/11/25 01:51:22;;;;;;;82.13;35.83;;;-4.00;99.90;;;;;;4156050;28;20591;-58
2021/11/25 01:53:23;;;;;;;83.88;37.05;;;-4.00;99.90;;;;;;4157797;28;20033;-58
2021/11/25 01:55:26;;;;;;;87.97;39.13;;;-4.00;99.90;;;;;;4156219;28;20038;-59
2021/11/25 01:57:27;;;;;;;126.80;52.72;;;-4.10;99.90;;;;;;4156691;28;20439;-59
2021/11/25 01:59:28;;;;;;;121.90;50.97;;;-4.10;99.90;;;;;;4156909;28;20064;-57
2021/11/25 02:01:34;;;;;;;113.00;50.55;;;-4.10;99.90;;;;;;4156769;28;20029;-59
2021/11/25 02:03:36;;;;;;;106.82;49.13;;;-4.20;99.90;;;;;;4156418;28;20078;-56
2021/11/25 02:05:37;;;;;;;96.10;43.03;;;-4.20;99.90;;;;;;4156145;28;20053;-56
2021/11/25 02:07:39;;;;;;;92.70;39.80;;;-4.20;99.90;;;;;;4156455;28;20025;-58
2021/11/25 02:09:40;;;;;;;89.22;38.92;;;-4.20;99.90;;;;;;4156361;28;20106;-57
2021/11/25 02:11:41;;;;;;;102.63;43.97;;;-4.20;99.90;;;;;;4156551;28;20088;-58
2021/11/25 02:13:42;;;;;;;93.63;39.13;;;-4.20;99.90;;;;;;4156327;28;20079;-58
2021/11/25 02:15:44;;;;;;;99.40;43.85;;;-4.10;99.90;;;;;;4156780;28;20030;-58
2021/11/25 02:17:45;;;;;;;104.72;43.88;;;-4.10;99.90;;;;;;4156282;28;20091;-56
2021/11/25 02:19:49;;;;;;;111.53;43.55;;;-4.10;99.90;;;;;;4156337;28;20099;-55
2021/11/25 02:21:50;;;;;;;91.68;40.70;;;-4.10;99.90;;;;;;4156063;28;20091;-59
2021/11/25 02:23:51;;;;;;;95.60;40.15;;;-4.10;99.90;;;;;;4157100;28;21069;-59
2021/11/25 02:25:53;;;;;;;90.43;38.28;;;-4.20;99.90;;;;;;4155464;28;20033;-57
2021/11/25 02:27:54;;;;;;;80.65;36.33;;;-4.20;99.90;;;;;;4156020;28;20091;-57
2021/11/25 02:29:56;;;;;;;82.28;36.30;;;-4.20;99.90;;;;;;4155936;28;20042;-55
2021/11/25 02:31:57;;;;;;;78.68;34.58;;;-4.20;99.90;;;;;;4155770;28;20460;-58
2021/11/25 02:33:58;;;;;;;77.90;35.13;;;-4.20;99.90;;;;;;4155669;28;20045;-53
2021/11/25 02:36:00;;;;;;;82.47;35.10;;;-4.20;99.90;;;;;;4155795;28;20025;-57
2021/11/25 02:38:01;;;;;;;75.97;33.80;;;-4.20;99.90;;;;;;4156410;28;20100;-57
2021/11/25 02:40:18;;;;;;;74.75;32.72;;;-4.20;99.90;;;;;;4156191;28;20033;-57
2021/11/25 02:42:20;;;;;;;79.28;34.60;;;-4.30;99.90;;;;;;4155442;28;20092;-57
2021/11/25 02:44:21;;;;;;;84.50;36.58;;;-4.30;99.90;;;;;;4156008;28;20103;-56
2021/11/25 02:46:22;;;;;;;80.22;34.75;;;-4.30;99.90;;;;;;4155996;28;20057;-59
2021/11/25 02:48:26;;;;;;;82.82;34.42;;;-4.30;99.90;;;;;;4156089;28;20180;-58
2021/11/25 02:50:28;;;;;;;70.82;31.65;;;-4.40;99.90;;;;;;4155683;28;20833;-56
2021/11/25 02:52:29;;;;;;;74.35;31.35;;;-4.40;99.90;;;;;;4155866;28;20091;-58
2021/11/25 02:54:30;;;;;;;68.75;29.15;;;-4.50;99.90;;;;;;4156039;28;20049;-57
2021/11/25 02:56:31;;;;;;;65.65;29.38;;;-4.60;99.90;;;;;;4155566;28;20029;-56
2021/11/25 02:58:33;;;;;;;70.70;28.95;;;-4.80;99.90;;;;;;4155781;28;20103;-59
2021/11/25 03:00:41;;;;;;;70.90;30.38;;;-4.90;99.90;;;;;;4155580;28;20025;-58
2021/11/25 03:02:42;;;;;;;61.10;28.00;;;-5.00;99.90;;;;;;4156196;28;20457;-58
2021/11/25 03:04:43;;;;;;;65.70;30.08;;;-5.00;99.90;;;;;;4155449;28;20048;-55
2021/11/25 03:06:44;;;;;;;68.85;30.38;;;-5.10;99.90;;;;;;4155321;28;20155;-58
2021/11/25 03:08:46;;;;;;;71.03;30.27;;;-5.20;99.90;;;;;;4155125;28;20084;-55
2021/11/25 03:10:51;;;;;;;68.28;30.15;;;-5.10;99.90;;;;;;4155433;28;20033;-56
2021/11/25 03:12:52;;;;;;;63.40;28.45;;;-5.10;99.90;;;;;;4155510;28;20029;-58
2021/11/25 03:14:53;;;;;;;66.38;29.40;;;-5.20;99.90;;;;;;4155744;28;20099;-59
2021/11/25 03:16:54;;;;;;;67.60;30.77;;;-5.20;99.90;;;;;;4155529;28;20412;-59
2021/11/25 03:18:55;;;;;;;68.38;31.23;;;-5.20;99.90;;;;;;4155493;28;20575;-58
2021/11/25 03:20:57;;;;;;;73.28;32.13;;;-5.20;99.90;;;;;;4155302;28;20025;-54
2021/11/25 03:22:59;;;;;;;74.63;30.52;;;-5.10;99.90;;;;;;4155492;28;20325;-58
2021/11/25 03:25:00;;;;;;;79.07;32.92;;;-5.10;99.90;;;;;;4155583;28;20042;-60
2021/11/25 03:27:01;;;;;;;89.18;36.47;;;-5.00;99.90;;;;;;4155341;28;20544;-60
2021/11/25 03:29:03;;;;;;;86.75;35.75;;;-5.00;99.90;;;;;;4155873;28;20096;-56
2021/11/25 03:31:04;;;;;;;71.45;34.15;;;-5.10;99.90;;;;;;4155243;28;20041;-56
2021/11/25 03:33:07;;;;;;;74.03;33.38;;;-5.10;99.90;;;;;;4156462;28;20037;-59
2021/11/25 03:35:09;;;;;;;78.57;31.00;;;-5.10;99.90;;;;;;4158861;28;20092;-57
2021/11/25 03:37:10;;;;;;;72.45;30.63;;;-5.20;99.90;;;;;;4158572;28;20038;-57
2021/11/25 03:39:11;;;;;;;63.97;30.60;;;-5.30;99.90;;;;;;4158544;28;20473;-58
2021/11/25 03:41:14;;;;;;;70.10;29.88;;;-5.30;99.90;;;;;;4159168;28;20018;-58
2021/11/25 03:43:15;;;;;;;67.10;30.70;;;-5.40;99.90;;;;;;4159300;28;20404;-58
2021/11/25 03:45:16;;;;;;;68.35;31.52;;;-5.50;99.90;;;;;;4158311;28;20637;-56
2021/11/25 03:47:17;;;;;;;75.75;32.35;;;-5.50;99.90;;;;;;4158815;28;20049;-53
2021/11/25 03:49:19;;;;;;;68.13;31.27;;;-5.50;99.90;;;;;;4158515;28;20083;-60
2021/11/25 03:51:20;;;;;;;72.72;33.22;;;-5.60;99.90;;;;;;4158631;28;20049;-60
2021/11/25 03:53:21;;;;;;;73.85;32.10;;;-5.60;99.90;;;;;;4158821;28;20038;-58
2021/11/25 03:55:22;;;;;;;67.45;33.30;;;-5.70;99.90;;;;;;4158606;28;20045;-52
2021/11/25 03:57:25;;;;;;;82.97;33.97;;;-5.70;99.90;;;;;;4157559;28;20037;-57
2021/11/25 03:59:26;;;;;;;80.07;36.75;;;-5.80;99.90;;;;;;4159331;28;20022;-63
2021/11/25 04:01:28;;;;;;;74.78;34.38;;;-5.70;99.90;;;;;;4157777;28;20033;-58
2021/11/25 04:03:29;;;;;;;78.72;35.28;;;-5.70;99.90;;;;;;4158681;28;20037;-57
2021/11/25 04:05:31;;;;;;;80.30;36.65;;;-5.70;99.90;;;;;;4157869;28;20126;-58
2021/11/25 04:07:32;;;;;;;78.30;33.83;;;-5.60;99.90;;;;;;4158583;28;20037;-57
2021/11/25 04:09:33;;;;;;;82.60;35.05;;;-5.60;99.90;;;;;;4158312;28;20095;-56
2021/11/25 04:11:34;;;;;;;94.72;36.28;;;-5.70;99.90;;;;;;4158365;28;20645;-58
2021/11/25 04:13:35;;;;;;;102.18;36.72;;;-5.70;99.90;;;;;;4157578;28;20108;-54
2021/11/25 04:15:37;;;;;;;87.03;34.00;;;-5.80;99.90;;;;;;4157883;28;20103;-57
2021/11/25 04:17:39;;;;;;;86.13;36.55;;;-5.90;99.90;;;;;;4158708;28;20064;-63
2021/11/25 04:19:40;;;;;;;88.50;36.65;;;-5.90;99.90;;;;;;4158636;28;20079;-56
2021/11/25 04:21:41;;;;;;;95.40;38.33;;;-6.00;99.90;;;;;;4157948;28;20424;-58
2021/11/25 04:23:42;;;;;;;97.45;37.63;;;-6.00;99.90;;;;;;4157963;28;20030;-55
2021/11/25 04:25:43;;;;;;;93.20;38.25;;;-6.00;99.90;;;;;;4156763;28;20045;-57
2021/11/25 04:27:46;;;;;;;89.72;37.95;;;-6.00;99.90;;;;;;4158174;28;20092;-58
2021/11/25 04:30:54;;;;;;;84.43;36.70;;;-5.90;99.90;;;;;;4157996;28;20091;-58
2021/11/25 04:36:57;;;;;;;126.75;36.42;;;-5.90;99.90;;;;;;4157882;28;20133;-59
2021/11/25 04:38:59;;;;;;;268.20;39.35;;;-5.90;99.90;;;;;;4157622;28;20499;-59
2021/11/25 04:41:02;;;;;;;154.65;34.30;;;-6.00;99.90;;;;;;4157476;28;20124;-54
2021/11/25 04:43:05;;;;;;;195.00;38.20;;;-6.00;99.90;;;;;;4157472;28;20038;-57
2021/11/25 04:45:06;;;;;;;152.88;41.75;;;-6.10;99.90;;;;;;4156730;28;20452;-55
2021/11/25 04:47:10;;;;;;;112.93;39.45;;;-6.10;99.90;;;;;;4157719;28;20095;-56
2021/11/25 04:49:12;;;;;;;99.53;39.58;;;-6.10;99.90;;;;;;4157019;28;20029;-58
2021/11/25 04:51:13;;;;;;;91.55;40.45;;;-6.10;99.90;;;;;;4157295;28;20053;-57
2021/11/25 04:53:14;;;;;;;135.18;40.60;;;-6.10;99.90;;;;;;4157698;28;20551;-60
2021/11/25 04:55:16;;;;;;;172.45;47.17;;;-6.10;99.90;;;;;;4157493;28;20041;-59
2021/11/25 04:57:17;;;;;;;157.95;45.38;;;-6.20;99.90;;;;;;4156696;28;20444;-57
2021/11/25 04:59:19;;;;;;;226.68;52.53;;;-6.20;99.90;;;;;;4157379;28;20041;-58
2021/11/25 05:01:20;;;;;;;120.15;43.22;;;-6.30;99.90;;;;;;4157487;28;20649;-59
2021/11/25 05:03:21;;;;;;;120.50;42.60;;;-6.30;99.90;;;;;;4157075;28;20421;-59
2021/11/25 05:05:22;;;;;;;174.95;44.97;;;-6.30;99.90;;;;;;4157208;28;20417;-59
2021/11/25 05:07:23;;;;;;;165.32;44.65;;;-6.30;99.90;;;;;;4157563;28;20041;-58
2021/11/25 05:09:25;;;;;;;194.38;46.55;;;-6.40;99.90;;;;;;4156294;28;20042;-58
2021/11/25 05:11:26;;;;;;;180.63;45.17;;;-6.40;99.90;;;;;;4156576;28;20488;-58
2021/11/25 05:13:27;;;;;;;182.32;43.67;;;-6.40;99.90;;;;;;4156687;28;20059;-57
2021/11/25 05:15:28;;;;;;;217.55;45.80;;;-6.40;99.90;;;;;;4155919;28;20462;-56
2021/11/25 05:17:29;;;;;;;236.75;48.85;;;-6.40;99.90;;;;;;4157051;28;20037;-57
2021/11/25 05:19:31;;;;;;;144.50;42.47;;;-6.40;99.90;;;;;;4155934;28;20064;-56
2021/11/25 05:21:33;;;;;;;108.30;41.22;;;-6.40;99.90;;;;;;4157154;28;20564;-58
2021/11/25 05:23:34;;;;;;;122.97;41.88;;;-6.30;99.90;;;;;;4156834;28;20026;-60
2021/11/25 05:25:35;;;;;;;102.35;39.03;;;-6.30;99.90;;;;;;4156693;28;20515;-59
2021/11/25 05:27:36;;;;;;;125.13;45.65;;;-6.20;99.90;;;;;;4155608;28;20420;-59
2021/11/25 05:29:38;;;;;;;110.60;43.10;;;-6.20;99.90;;;;;;4156206;28;20104;-60
2021/11/25 05:31:39;;;;;;;102.20;44.22;;;-6.10;99.90;;;;;;4156189;28;20045;-59
2021/11/25 05:33:40;;;;;;;103.30;42.53;;;-6.00;99.90;;;;;;4156687;28;20038;-56
2021/11/25 05:35:42;;;;;;;126.30;46.17;;;-6.00;99.90;;;;;;4156371;28;20049;-59
2021/11/25 05:37:43;;;;;;;122.25;49.50;;;-6.00;99.90;;;;;;4156503;28;20087;-56
2021/11/25 05:39:44;;;;;;;132.90;50.60;;;-5.90;99.90;;;;;;4143741;28;20455;-59
2021/11/25 05:41:45;;;;;;;113.82;45.15;;;-5.90;99.90;;;;;;4156800;28;20033;-59
2021/11/25 05:43:46;;;;;;;117.82;46.00;;;-5.90;99.90;;;;;;4156189;28;20087;-58
2021/11/25 05:45:48;;;;;;;123.15;43.88;;;-5.80;99.90;;;;;;4156072;28;20033;-57
2021/11/25 05:47:49;;;;;;;131.98;42.85;;;-5.80;99.90;;;;;;4156680;28;20288;-60
2021/11/25 05:49:50;;;;;;;110.85;42.85;;;-5.90;99.90;;;;;;4155572;28;20041;-58
2021/11/25 05:51:51;;;;;;;114.63;39.50;;;-5.80;99.90;;;;;;4147543;28;20038;-61
2021/11/25 05:53:52;;;;;;;112.85;41.10;;;-5.80;99.90;;;;;;4155948;28;20045;-58
2021/11/25 05:55:53;;;;;;;107.13;41.15;;;-5.80;99.90;;;;;;4154988;28;20038;-59
2021/11/25 05:57:56;;;;;;;122.22;42.63;;;-5.70;99.90;;;;;;4155706;28;20067;-57
2021/11/25 05:59:57;;;;;;;127.00;42.15;;;-5.60;99.90;;;;;;4156064;28;20053;-58
2021/11/25 06:01:58;;;;;;;128.98;43.35;;;-5.60;99.90;;;;;;4155363;28;20103;-57
2021/11/25 06:03:59;;;;;;;137.65;44.13;;;-5.60;99.90;;;;;;4156299;28;20102;-59
2021/11/25 06:06:01;;;;;;;120.93;43.47;;;-5.60;99.90;;;;;;4155705;28;20033;-54
2021/11/25 06:08:02;;;;;;;141.32;45.67;;;-5.50;99.90;;;;;;4156345;28;20284;-58
2021/11/25 06:10:06;;;;;;;123.22;45.08;;;-5.50;99.90;;;;;;4154701;28;20131;-56
2021/11/25 06:12:09;;;;;;;135.43;45.28;;;-5.40;99.90;;;;;;4156062;28;20030;-59
2021/11/25 06:14:10;;;;;;;138.55;50.53;;;-5.30;99.90;;;;;;4156062;28;20425;-57
2021/11/25 06:16:11;;;;;;;144.80;48.40;;;-5.20;99.90;;;;;;4155893;28;20045;-67
2021/11/25 06:18:13;;;;;;;136.82;50.75;;;-5.20;99.90;;;;;;4156083;28;20091;-59
2021/11/25 06:20:15;;;;;;;129.68;48.42;;;-5.10;99.90;;;;;;4155837;28;20103;-61
2021/11/25 06:22:17;;;;;;;138.85;47.83;;;-5.00;99.90;;;;;;4156380;28;20037;-59
2021/11/25 06:24:18;;;;;;;141.82;48.45;;;-4.90;99.90;;;;;;4154489;28;20111;-60
2021/11/25 06:26:19;;;;;;;149.05;48.55;;;-4.90;99.90;;;;;;4155378;28;20037;-60
2021/11/25 06:28:20;;;;;;;138.45;46.17;;;-4.90;99.90;;;;;;4155418;28;20464;-58
2021/11/25 06:30:22;;;;;;;152.88;47.67;;;-4.90;99.90;;;;;;4148825;28;20034;-58
2021/11/25 06:32:23;;;;;;;160.73;47.03;;;-4.90;99.90;;;;;;4155557;28;20049;-59
2021/11/25 06:34:24;;;;;;;184.07;49.15;;;-4.90;99.90;;;;;;4155242;28;21174;-59
2021/11/25 06:36:25;;;;;;;157.50;46.05;;;-4.90;99.90;;;;;;4155389;28;20029;-62
2021/11/25 06:38:26;;;;;;;131.43;44.28;;;-5.00;99.90;;;;;;4156190;28;20366;-59
2021/11/25 06:40:31;;;;;;;185.15;43.10;;;-4.90;99.90;;;;;;4151297;28;20527;-60
2021/11/25 06:42:32;;;;;;;182.40;47.40;;;-4.90;99.90;;;;;;4154729;28;20045;-60
2021/11/25 06:44:33;;;;;;;163.57;45.92;;;-4.90;99.90;;;;;;4155405;28;20021;-60
2021/11/25 06:46:34;;;;;;;138.02;45.75;;;-4.90;99.90;;;;;;4155532;28;20033;-61
2021/11/25 06:48:35;;;;;;;158.77;46.10;;;-4.90;99.90;;;;;;4155818;28;20034;-60
2021/11/25 06:50:37;;;;;;;146.10;43.88;;;-4.90;99.90;;;;;;4155588;28;20079;-61
2021/11/25 06:52:39;;;;;;;174.00;43.92;;;-4.90;99.90;;;;;;4155947;28;20045;-64
2021/11/25 06:54:40;;;;;;;158.82;44.58;;;-4.90;99.90;;;;;;4155497;28;20033;-61
2021/11/25 06:56:41;;;;;;;174.90;43.35;;;-4.80;99.90;;;;;;4155845;28;20454;-60
2021/11/25 06:58:42;;;;;;;280.48;51.92;;;-4.80;99.90;;;;;;4155465;28;20026;-58
2021/11/25 07:00:43;;;;;;;173.52;43.47;;;-4.80;99.90;;;;;;4155080;28;20045;-60
2021/11/25 07:02:44;;;;;;;165.13;43.30;;;-4.80;99.90;;;;;;4155010;28;20080;-57
2021/11/25 07:04:45;;;;;;;185.55;43.95;;;-4.80;99.90;;;;;;4156410;28;20531;-60
2021/11/25 07:06:47;;;;;;;251.52;47.88;;;-4.80;99.90;;;;;;4155494;28;20133;-58
2021/11/25 07:08:48;;;;;;;179.50;46.30;;;-4.80;99.90;;;;;;4154723;28;20037;-57
2021/11/25 07:10:49;;;;;;;217.50;47.05;;;-4.70;99.90;;;;;;4156061;28;20032;-60
2021/11/25 07:12:50;;;;;;;197.38;40.47;;;-4.70;99.90;;;;;;4154582;28;20091;-61
2021/11/25 07:14:51;;;;;;;186.65;40.75;;;-4.70;99.90;;;;;;4156094;28;20041;-59
2021/11/25 07:16:53;;;;;;;184.02;38.45;;;-4.70;99.90;;;;;;4156268;28;20127;-58
2021/11/25 07:18:54;;;;;;;129.13;34.22;;;-4.60;99.90;;;;;;4155590;28;20026;-63
2021/11/25 07:20:55;;;;;;;157.73;35.35;;;-4.60;99.90;;;;;;4166637;28;20407;-61
2021/11/25 07:22:56;;;;;;;137.75;39.35;;;-4.60;99.90;;;;;;4172264;28;20053;-60
2021/11/25 07:24:57;;;;;;;112.82;37.75;;;-4.50;99.90;;;;;;4171854;28;20041;-60
2021/11/25 07:26:58;;;;;;;154.73;43.00;;;-4.50;99.90;;;;;;4170715;28;20102;-58
2021/11/25 07:28:59;;;;;;;131.50;37.08;;;-4.50;99.90;;;;;;4166539;28;20105;-59
2021/11/25 07:31:01;;;;;;;109.32;38.72;;;-4.50;99.90;;;;;;4155474;28;20037;-57
2021/11/25 07:33:02;;;;;;;139.48;39.20;;;-4.50;99.90;;;;;;4154661;28;20091;-60
2021/11/25 07:35:06;;;;;;;147.98;40.35;;;-4.40;99.90;;;;;;4155641;28;20076;-57
2021/11/25 07:37:07;;;;;;;119.18;38.53;;;-4.40;99.90;;;;;;4155343;28;20649;-58
2021/11/25 07:39:08;;;;;;;135.02;41.17;;;-4.40;99.90;;;;;;4155355;28;20021;-59
2021/11/25 07:41:09;;;;;;;132.85;40.50;;;-4.40;99.90;;;;;;4155711;28;21032;-59
2021/11/25 07:43:11;;;;;;;123.40;39.03;;;-4.40;99.90;;;;;;4155766;28;20060;-60
2021/11/25 07:45:13;;;;;;;124.57;40.00;;;-4.40;99.90;;;;;;4155215;28;20037;-58
2021/11/25 07:47:16;;;;;;;114.30;38.97;;;-4.40;99.90;;;;;;4155487;28;20041;-57
2021/11/25 07:49:17;;;;;;;129.05;38.58;;;-4.40;99.90;;;;;;4155536;28;20544;-57
2021/11/25 07:51:18;;;;;;;178.80;43.10;;;-4.30;99.90;;;;;;4155184;28;20042;-58
2021/11/25 07:53:20;;;;;;;133.13;41.17;;;-4.30;99.90;;;;;;4155780;28;20710;-59
2021/11/25 07:55:22;;;;;;;94.05;38.08;;;-4.20;99.90;;;;;;4154818;28;20091;-59
2021/11/25 07:57:23;;;;;;;99.93;39.03;;;-4.10;99.90;;;;;;4156061;28;20029;-58
2021/11/25 07:59:26;;;;;;;108.47;39.67;;;-3.90;99.90;;;;;;4154544;28;20084;-60
2021/11/25 08:01:27;;;;;;;103.00;42.20;;;-3.80;99.90;;;;;;4155328;28;20037;-60
2021/11/25 08:03:29;;;;;;;114.97;42.20;;;-3.70;99.90;;;;;;4155270;28;20087;-61
2021/11/25 08:05:30;;;;;;;118.97;43.05;;;-3.70;99.90;;;;;;4154321;28;20046;-59
2021/11/25 08:07:31;;;;;;;116.60;43.97;;;-3.60;99.90;;;;;;4154862;28;20045;-59
2021/11/25 08:09:32;;;;;;;120.75;42.78;;;-3.60;99.90;;;;;;4155038;28;20555;-61
2021/11/25 08:11:33;;;;;;;120.57;42.17;;;-3.60;99.90;;;;;;4153736;28;20041;-59
2021/11/25 08:13:34;;;;;;;112.60;40.40;;;-3.50;99.90;;;;;;4155134;28;20099;-64
2021/11/25 08:15:35;;;;;;;119.07;42.33;;;-3.40;99.90;;;;;;4154773;28;20591;-60
2021/11/25 08:17:37;;;;;;;113.70;42.60;;;-3.30;99.90;;;;;;4155097;28;20436;-59
2021/11/25 08:19:38;;;;;;;115.27;43.10;;;-3.10;99.90;;;;;;4156473;28;20297;-59
2021/11/25 08:21:39;;;;;;;116.75;46.03;;;-3.10;99.90;;;;;;4158067;28;20737;-58
2021/11/25 08:23:40;;;;;;;127.63;46.40;;;-3.10;99.90;;;;;;4164057;28;20384;-60
2021/11/25 08:25:43;;;;;;;129.03;44.10;;;-3.00;99.90;;;;;;4166245;28;20329;-58
2021/11/25 08:27:44;;;;;;;111.78;44.65;;;-3.00;99.90;;;;;;4166141;28;20373;-60
2021/11/25 08:29:46;;;;;;;117.10;46.88;;;-2.90;99.90;;;;;;4173551;28;20036;-60
2021/11/25 08:31:47;;;;;;;122.07;44.75;;;-2.80;99.90;;;;;;4174489;28;20486;-61
2021/11/25 08:33:48;;;;;;;107.73;42.80;;;-2.90;99.90;;;;;;4158609;28;20071;-59
2021/11/25 08:35:49;;;;;;;107.80;43.67;;;-2.90;99.90;;;;;;4157966;28;20316;-61
2021/11/25 08:37:51;;;;;;;100.60;41.13;;;-2.90;99.90;;;;;;4157337;28;20266;-58
2021/11/25 08:39:52;;;;;;;109.43;43.83;;;-2.90;99.90;;;;;;4158254;28;20263;-59
2021/11/25 08:41:54;;;;;;;110.50;43.10;;;-2.90;99.90;;;;;;4157872;28;20254;-58
2021/11/25 08:43:55;;;;;;;103.67;42.30;;;-2.90;99.90;;;;;;4158050;28;20259;-59
2021/11/25 08:45:56;;;;;;;101.37;41.10;;;-2.90;99.90;;;;;;4158272;28;20321;-59
2021/11/25 08:47:58;;;;;;;106.80;41.33;;;-2.80;99.90;;;;;;4155418;28;21059;-58
2021/11/25 08:50:00;;;;;;;105.33;42.70;;;-2.80;99.90;;;;;;4159361;28;20273;-58
2021/11/25 08:52:02;;;;;;;105.07;43.30;;;-2.80;99.90;;;;;;4173496;28;20329;-60
2021/11/25 08:54:04;;;;;;;104.23;41.53;;;-2.70;99.90;;;;;;4174145;28;20270;-60
2021/11/25 08:56:09;;;;;;;99.47;41.30;;;-2.60;99.90;;;;;;4169805;28;20320;-62
2021/11/25 08:58:10;;;;;;;113.77;44.73;;;-2.50;99.90;;;;;;4159213;28;20271;-65
2021/11/25 09:00:12;;;;;;;104.43;43.47;;;-2.50;99.90;;;;;;4159922;28;20333;-58
2021/11/25 09:02:14;;;;;;;108.23;43.10;;;-2.40;99.90;;;;;;4157863;28;20316;-60
2021/11/25 09:04:15;;;;;;;102.63;42.80;;;-2.40;99.90;;;;;;4156826;28;20839;-60
2021/11/25 09:06:16;;;;;;;104.50;42.57;;;-2.30;99.90;;;;;;4157316;28;20762;-57
2021/11/25 09:08:18;;;;;;;113.40;42.53;;;-2.30;99.90;;;;;;4156607;28;20354;-59
2021/11/25 09:10:20;;;;;;;108.03;43.40;;;-2.20;99.90;;;;;;4156909;28;20274;-58
2021/11/25 09:12:21;;;;;;;99.20;41.83;;;-2.10;99.90;;;;;;4157341;28;20271;-58
2021/11/25 09:14:22;;;;;;;98.43;40.87;;;-2.10;99.90;;;;;;4157661;28;20580;-59
2021/11/25 09:16:23;;;;;;;101.30;42.10;;;-2.10;99.90;;;;;;4157050;28;20309;-58
2021/11/25 09:18:25;;;;;;;99.80;42.77;;;-2.00;99.90;;;;;;4157501;28;20570;-59
2021/11/25 09:20:31;;;;;;;103.73;41.80;;;-2.00;99.90;;;;;;4157313;28;20336;-59
2021/11/25 09:22:32;;;;;;;106.27;40.60;;;-2.10;99.90;;;;;;4157136;28;20266;-60
2021/11/25 09:24:34;;;;;;;115.33;44.27;;;-2.10;99.90;;;;;;4157672;28;20275;-60
2021/11/25 09:26:37;;;;;;;112.53;42.87;;;-2.10;99.90;;;;;;4157286;28;20690;-60
2021/11/25 09:28:38;;;;;;;109.17;43.67;;;-1.90;99.90;;;;;;4156745;28;20436;-60
2021/11/25 09:30:40;;;;;;;103.43;40.80;;;-1.80;99.90;;;;;;4156317;28;20341;-60
2021/11/25 09:32:42;;;;;;;100.80;40.03;;;-1.80;99.90;;;;;;4157059;28;20809;-58
2021/11/25 09:34:43;;;;;;;111.13;41.37;;;-1.70;99.90;;;;;;4156584;28;20263;-61
2021/11/25 09:36:44;;;;;;;95.57;39.47;;;-1.80;99.90;;;;;;4157204;28;20259;-58
2021/11/25 09:38:46;;;;;;;95.30;39.03;;;-1.70;99.90;;;;;;4155844;28;20283;-60
2021/11/25 09:40:49;;;;;;;94.50;39.67;;;-1.80;99.90;;;;;;4156693;28;20267;-58
2021/11/25 09:42:56;;;;;;;106.53;39.43;;;-1.80;99.90;;;;;;4156054;28;20688;-60
2021/11/25 09:44:57;;;;;;;98.93;40.07;;;-1.80;99.90;;;;;;4156849;28;20302;-60
2021/11/25 09:46:59;;;;;;;94.90;39.63;;;-1.70;99.90;;;;;;4155668;28;20266;-60
2021/11/25 09:49:00;;;;;;;106.37;41.83;;;-1.70;99.90;;;;;;4156740;28;20295;-60
2021/11/25 09:51:01;;;;;;;104.97;40.83;;;-1.60;99.90;;;;;;4156224;28;20275;-59
2021/11/25 09:53:07;;;;;;;98.10;40.03;;;-1.60;99.90;;;;;;4156770;28;20312;-60
2021/11/25 09:55:09;;;;;;;102.67;40.67;;;-1.60;99.90;;;;;;4156826;28;20263;-59
2021/11/25 09:57:10;;;;;;;92.93;38.77;;;-1.50;99.90;;;;;;4155952;28;20325;-60
2021/11/25 09:59:11;;;;;;;104.00;42.40;;;-1.50;99.90;;;;;;4156852;28;20321;-59
2021/11/25 10:01:22;;;;;;;104.77;40.00;;;-1.50;99.90;;;;;;4156814;28;20365;-60
2021/11/25 10:03:23;;;;;;;98.07;41.22;;;-1.50;99.90;;;;;;4155993;28;20274;-60
2021/11/25 10:05:25;;;;;;;94.77;39.87;;;-1.40;99.90;;;;;;4155524;28;20211;-61
2021/11/25 10:07:31;;;;;;;102.70;43.20;;;-1.40;99.90;;;;;;4156545;28;20275;-61
2021/11/25 10:09:34;;;;;;;109.10;42.93;;;-1.30;99.90;;;;;;4156295;28;20658;-61
2021/11/25 10:11:38;;;;;;;105.03;40.30;;;-1.30;99.90;;;;;;4156219;28;20329;-60
2021/11/25 10:13:55;;;;;;;115.77;42.90;;;-1.40;99.90;;;;;;4155707;28;20267;-57
2021/11/25 10:15:57;;;;;;;105.57;42.63;;;-1.40;99.90;;;;;;4156717;28;20769;-60
2021/11/25 10:18:01;;;;;;;116.90;44.07;;;-1.50;99.90;;;;;;4155828;28;21001;-60